Time;durP1;ratioP1;P1;durP2;ratioP2;P2;SDS_P1;SDS_P2;PMS_P1;PMS_P2;Temp;Humidity;BMP_temperature;BMP_pressure;BME280_temperature;BME280_humidity;BME280_pressure;Samples;Min_cycle;Max_cycle;Signal;HPM_P1;HPM_P2
2021/08/08 00:02:14;;;;;;;6.32;5.03;;;21.80;91.60;;;;;;5053453;28;20041;-62
2021/08/08 00:04:40;;;;;;;6.85;4.57;;;21.80;91.70;;;;;;5052961;28;20397;-62
2021/08/08 00:07:07;;;;;;;7.45;4.47;;;21.80;91.60;;;;;;5053455;28;20036;-62
2021/08/08 00:09:34;;;;;;;9.85;5.10;;;21.80;91.60;;;;;;5052968;28;20040;-62
2021/08/08 00:12:01;;;;;;;8.45;5.15;;;21.80;91.60;;;;;;5053363;28;20398;-62
2021/08/08 00:14:27;;;;;;;8.68;4.88;;;21.80;91.70;;;;;;5053354;28;20393;-63
2021/08/08 00:16:54;;;;;;;7.32;4.60;;;21.80;91.60;;;;;;5052945;28;20029;-63
2021/08/08 00:19:20;;;;;;;7.63;4.78;;;21.80;91.50;;;;;;5052996;28;20616;-64
2021/08/08 00:21:47;;;;;;;7.85;5.78;;;21.80;91.50;;;;;;5053068;28;20051;-60
2021/08/08 00:24:14;;;;;;;9.50;4.65;;;21.90;91.60;;;;;;5052903;28;20053;-62
2021/08/08 00:26:40;;;;;;;6.35;4.75;;;21.80;91.60;;;;;;5052805;28;20060;-63
2021/08/08 00:29:07;;;;;;;7.03;4.97;;;21.80;91.50;;;;;;5051870;28;20036;-63
2021/08/08 00:31:33;;;;;;;7.85;5.00;;;21.80;91.60;;;;;;5052572;28;20037;-61
2021/08/08 00:34:06;;;;;;;7.43;5.07;;;21.80;91.60;;;;;;5052517;28;20053;-62
2021/08/08 00:36:34;;;;;;;8.18;4.93;;;21.80;91.40;;;;;;5052863;28;20377;-62
2021/08/08 00:39:01;;;;;;;6.10;5.07;;;21.80;91.20;;;;;;5051486;28;20040;-63
2021/08/08 00:41:30;;;;;;;7.50;5.03;;;21.90;91.10;;;;;;5051298;28;20025;-63
2021/08/08 00:43:58;;;;;;;11.55;7.05;;;21.90;91.30;;;;;;5034704;28;20041;-61
2021/08/08 00:46:25;;;;;;;13.38;7.97;;;21.90;91.80;;;;;;5034667;28;20153;-63
2021/08/08 00:48:52;;;;;;;11.27;8.32;;;21.80;92.60;;;;;;5051586;28;20477;-62
2021/08/08 00:51:22;;;;;;;9.63;8.07;;;21.80;92.90;;;;;;5050734;28;20036;-60
2021/08/08 00:53:50;;;;;;;12.18;9.90;;;21.80;93.10;;;;;;5051216;28;20060;-61
2021/08/08 00:56:17;;;;;;;14.45;8.55;;;21.80;93.20;;;;;;5051807;28;20408;-60
2021/08/08 00:58:44;;;;;;;13.10;9.82;;;21.80;93.40;;;;;;5051203;28;20032;-61
2021/08/08 01:01:17;;;;;;;10.32;8.90;;;21.80;93.50;;;;;;5051399;28;20032;-61
2021/08/08 01:03:44;;;;;;;11.07;8.55;;;21.70;93.70;;;;;;5051131;28;20385;-63
2021/08/08 01:06:22;;;;;;;10.50;9.38;;;21.70;93.70;;;;;;5051489;28;20036;-63
2021/08/08 01:08:53;;;;;;;12.77;10.23;;;21.60;94.00;;;;;;5051162;28;20033;-63
2021/08/08 01:11:23;;;;;;;10.95;9.90;;;21.60;94.40;;;;;;5051097;28;20044;-62
2021/08/08 01:13:52;;;;;;;15.67;11.20;;;21.50;94.60;;;;;;5051193;28;20477;-57
2021/08/08 01:16:21;;;;;;;12.93;10.73;;;21.50;94.70;;;;;;5051187;28;20036;-63
2021/08/08 01:18:49;;;;;;;11.30;10.05;;;21.50;94.80;;;;;;5051021;28;20477;-63
2021/08/08 01:21:18;;;;;;;12.73;9.70;;;21.50;94.90;;;;;;5051662;28;20037;-62
2021/08/08 01:23:50;;;;;;;12.18;9.95;;;21.40;95.30;;;;;;5050682;28;20033;-62
2021/08/08 01:26:17;;;;;;;13.57;9.63;;;21.40;95.00;;;;;;5051312;28;20048;-62
2021/08/08 01:28:44;;;;;;;10.20;8.20;;;21.40;94.90;;;;;;5050557;28;20036;-62
2021/08/08 01:31:11;;;;;;;11.80;8.77;;;21.40;94.60;;;;;;5051002;28;20036;-63
2021/08/08 01:33:39;;;;;;;10.65;7.50;;;21.40;94.20;;;;;;5050548;28;20064;-63
2021/08/08 01:36:14;;;;;;;8.63;7.00;;;21.30;94.30;;;;;;5050651;28;20056;-61
2021/08/08 01:38:47;;;;;;;9.38;7.13;;;21.30;94.10;;;;;;5050228;28;20481;-64
2021/08/08 01:41:17;;;;;;;7.82;6.85;;;21.30;94.00;;;;;;5050691;28;20033;-63
2021/08/08 01:43:51;;;;;;;10.00;6.75;;;21.30;94.00;;;;;;5050766;28;20041;-61
2021/08/08 01:46:25;;;;;;;7.05;5.57;;;21.30;94.00;;;;;;5050976;28;20025;-62
2021/08/08 01:49:07;;;;;;;9.82;6.95;;;21.10;94.70;;;;;;5050821;28;20028;-62
2021/08/08 01:51:35;;;;;;;6.97;5.75;;;21.20;94.50;;;;;;5050895;28;20489;-62
2021/08/08 01:54:01;;;;;;;11.05;6.82;;;21.20;94.30;;;;;;5050612;28;20060;-63
2021/08/08 01:56:35;;;;;;;9.90;5.95;;;21.20;94.20;;;;;;5050142;28;20049;-64
2021/08/08 01:59:03;;;;;;;8.73;6.68;;;21.30;94.10;;;;;;5050576;28;20036;-63
2021/08/08 02:01:30;;;;;;;8.45;6.68;;;21.30;93.80;;;;;;5034167;28;20037;-63
2021/08/08 02:04:24;;;;;;;8.80;6.65;;;21.30;93.80;;;;;;5053576;28;20045;-63
2021/08/08 02:06:59;;;;;;;9.18;6.05;;;21.30;93.70;;;;;;5038780;28;20033;-63
2021/08/08 02:09:26;;;;;;;7.78;5.95;;;21.30;93.80;;;;;;5054214;28;20104;-63
2021/08/08 02:11:53;;;;;;;7.32;6.18;;;21.30;93.70;;;;;;5055230;28;20350;-63
2021/08/08 02:14:23;;;;;;;8.27;6.65;;;21.40;93.70;;;;;;5054603;28;20041;-63
2021/08/08 02:16:52;;;;;;;10.65;6.00;;;21.30;93.60;;;;;;5054139;28;20029;-64
2021/08/08 02:19:21;;;;;;;7.45;6.03;;;21.30;93.50;;;;;;5054407;28;20389;-63
2021/08/08 02:21:52;;;;;;;11.43;6.70;;;21.30;93.50;;;;;;5054255;28;20029;-62
2021/08/08 02:24:22;;;;;;;8.70;6.35;;;21.20;93.40;;;;;;5053516;28;20044;-62
2021/08/08 02:26:59;;;;;;;9.50;5.95;;;21.30;93.40;;;;;;5053962;28;20045;-62
2021/08/08 02:29:26;;;;;;;8.48;6.38;;;21.30;93.40;;;;;;5053940;28;20041;-61
2021/08/08 02:31:52;;;;;;;6.78;5.88;;;21.20;93.30;;;;;;5053867;28;20025;-63
2021/08/08 02:34:28;;;;;;;8.43;6.22;;;21.20;93.20;;;;;;5053150;28;20052;-62
2021/08/08 02:36:55;;;;;;;8.70;5.82;;;21.30;93.00;;;;;;5053711;28;20025;-64
2021/08/08 02:39:22;;;;;;;7.85;6.47;;;21.30;93.10;;;;;;5053869;28;20370;-63
2021/08/08 02:41:49;;;;;;;8.00;6.15;;;21.20;93.30;;;;;;5053445;28;20064;-63
2021/08/08 02:44:16;;;;;;;9.00;6.57;;;21.20;93.30;;;;;;5053852;28;20033;-63
2021/08/08 02:46:43;;;;;;;7.95;6.28;;;21.20;93.10;;;;;;5037101;28;20048;-61
2021/08/08 02:49:09;;;;;;;7.70;5.57;;;21.20;93.00;;;;;;5053655;28;20045;-61
2021/08/08 02:51:36;;;;;;;9.35;6.32;;;21.20;92.90;;;;;;5054700;28;20501;-62
2021/08/08 02:54:04;;;;;;;8.65;6.03;;;21.20;92.90;;;;;;5053353;28;20041;-63
2021/08/08 02:56:31;;;;;;;9.13;6.15;;;21.10;92.90;;;;;;5037385;28;20037;-62
2021/08/08 02:58:58;;;;;;;9.10;5.70;;;21.10;93.10;;;;;;5053457;28;20392;-62
2021/08/08 03:01:25;;;;;;;9.15;5.90;;;21.10;93.00;;;;;;5053494;28;20029;-63
2021/08/08 03:03:51;;;;;;;8.60;5.70;;;21.00;93.00;;;;;;5052964;28;20040;-63
2021/08/08 03:06:18;;;;;;;9.52;6.65;;;21.00;93.00;;;;;;5054647;28;20029;-63
2021/08/08 03:08:47;;;;;;;7.57;5.80;;;20.90;93.10;;;;;;5052448;28;20033;-64
2021/08/08 03:11:14;;;;;;;6.88;5.35;;;20.90;93.10;;;;;;5054508;28;20048;-64
2021/08/08 03:13:41;;;;;;;7.88;5.10;;;20.90;93.10;;;;;;5053972;28;20037;-64
2021/08/08 03:16:10;;;;;;;7.03;4.95;;;20.90;93.20;;;;;;5052289;28;20033;-63
2021/08/08 03:18:37;;;;;;;8.23;5.65;;;20.90;93.10;;;;;;5052690;28;20036;-63
2021/08/08 03:21:06;;;;;;;7.82;4.70;;;20.90;93.00;;;;;;5053291;28;20036;-63
2021/08/08 03:23:34;;;;;;;9.50;5.70;;;20.90;93.10;;;;;;5052821;28;20036;-63
2021/08/08 03:26:01;;;;;;;8.65;6.20;;;20.90;93.30;;;;;;5052957;28;20037;-63
2021/08/08 03:28:29;;;;;;;6.70;5.53;;;20.80;93.20;;;;;;5053154;28;20037;-64
2021/08/08 03:30:56;;;;;;;9.52;5.47;;;20.70;93.20;;;;;;5052765;28;20408;-62
2021/08/08 03:33:23;;;;;;;7.40;5.28;;;20.70;93.10;;;;;;5053713;28;20063;-63
2021/08/08 03:35:50;;;;;;;6.43;5.20;;;20.70;93.30;;;;;;5053651;28;20345;-63
2021/08/08 03:38:16;;;;;;;10.80;4.90;;;20.70;93.40;;;;;;5052553;28;20369;-63
2021/08/08 03:40:43;;;;;;;9.25;6.18;;;20.70;93.40;;;;;;5053299;28;20037;-64
2021/08/08 03:43:09;;;;;;;7.03;5.38;;;20.70;93.50;;;;;;5036021;28;20055;-62
2021/08/08 03:45:36;;;;;;;8.55;5.28;;;20.60;93.50;;;;;;5053346;28;20500;-62
2021/08/08 03:48:03;;;;;;;7.70;5.00;;;20.60;93.20;;;;;;5052793;28;20029;-63
2021/08/08 03:50:32;;;;;;;8.35;4.57;;;20.60;93.00;;;;;;5036122;28;20386;-62
2021/08/08 03:52:58;;;;;;;8.93;4.75;;;20.50;93.20;;;;;;5052485;28;20044;-62
2021/08/08 03:55:25;;;;;;;8.93;5.22;;;20.40;93.30;;;;;;5052193;28;20052;-63
2021/08/08 03:57:53;;;;;;;8.70;4.68;;;20.40;93.30;;;;;;5052431;28;20049;-63
2021/08/08 04:00:23;;;;;;;7.47;5.43;;;20.40;93.50;;;;;;5051741;28;20075;-64
2021/08/08 04:02:51;;;;;;;6.55;5.00;;;20.40;93.30;;;;;;5053330;28;20033;-64
2021/08/08 04:05:23;;;;;;;7.15;4.78;;;20.40;93.30;;;;;;5052103;28;20032;-63
2021/08/08 04:07:49;;;;;;;6.30;4.32;;;20.40;93.30;;;;;;5051911;28;20040;-63
2021/08/08 04:10:17;;;;;;;8.15;4.68;;;20.40;93.30;;;;;;5052089;28;20028;-62
2021/08/08 04:12:45;;;;;;;5.90;4.75;;;20.40;93.60;;;;;;5051727;28;20033;-62
2021/08/08 04:15:12;;;;;;;7.53;3.70;;;20.30;93.40;;;;;;5051880;28;20029;-63
2021/08/08 04:17:39;;;;;;;5.90;4.45;;;20.30;93.50;;;;;;5051865;28;20048;-62
2021/08/08 04:20:06;;;;;;;7.90;4.43;;;20.30;93.30;;;;;;5051993;28;20464;-62
2021/08/08 04:22:32;;;;;;;5.90;4.28;;;20.30;93.30;;;;;;5051875;28;20365;-63
2021/08/08 04:24:58;;;;;;;6.63;3.85;;;20.30;93.50;;;;;;5053158;28;20032;-63
2021/08/08 04:27:25;;;;;;;8.02;4.57;;;20.30;93.60;;;;;;5051318;28;20361;-62
2021/08/08 04:29:52;;;;;;;6.82;4.35;;;20.40;93.60;;;;;;5051876;28;20393;-62
2021/08/08 04:32:19;;;;;;;7.28;4.47;;;20.30;93.50;;;;;;5051572;28;20033;-63
2021/08/08 04:34:46;;;;;;;8.65;3.97;;;20.30;93.60;;;;;;5051426;28;20405;-63
2021/08/08 04:37:14;;;;;;;5.50;4.57;;;20.40;93.70;;;;;;5051477;28;20045;-62
2021/08/08 04:39:40;;;;;;;7.35;4.32;;;20.40;93.70;;;;;;5051177;28;20041;-58
2021/08/08 04:42:07;;;;;;;7.05;4.30;;;20.40;94.00;;;;;;5051034;28;20108;-62
2021/08/08 04:44:35;;;;;;;4.72;3.83;;;20.40;93.80;;;;;;5051736;28;20064;-63
2021/08/08 04:47:03;;;;;;;5.90;4.20;;;20.40;93.70;;;;;;5052665;28;20041;-61
2021/08/08 04:49:30;;;;;;;6.07;4.35;;;20.30;93.20;;;;;;5051847;28;20033;-63
2021/08/08 04:51:56;;;;;;;7.30;4.65;;;20.30;93.20;;;;;;5051352;28;20040;-62
2021/08/08 04:54:23;;;;;;;7.68;4.55;;;20.30;93.30;;;;;;5052348;28;20046;-62
2021/08/08 04:56:49;;;;;;;7.15;4.28;;;20.20;93.30;;;;;;5052367;28;20033;-62
2021/08/08 04:59:16;;;;;;;7.85;4.50;;;20.20;93.40;;;;;;5051050;28;20040;-62
2021/08/08 05:01:43;;;;;;;6.93;4.40;;;20.20;93.10;;;;;;5034877;28;20036;-62
2021/08/08 05:04:09;;;;;;;5.93;4.68;;;20.20;93.10;;;;;;5050909;28;20040;-62
2021/08/08 05:06:35;;;;;;;6.05;5.38;;;20.20;93.00;;;;;;5051338;28;20032;-63
2021/08/08 05:09:03;;;;;;;8.05;4.65;;;20.10;93.20;;;;;;5051868;28;20473;-62
2021/08/08 05:11:31;;;;;;;6.88;4.32;;;20.10;93.50;;;;;;5051088;28;20039;-63
2021/08/08 05:13:59;;;;;;;7.03;4.47;;;20.10;93.50;;;;;;5050826;28;20504;-63
2021/08/08 05:16:26;;;;;;;6.78;4.63;;;20.10;93.50;;;;;;5051189;28;20381;-62
2021/08/08 05:18:53;;;;;;;5.85;4.13;;;20.10;93.60;;;;;;5050965;28;20048;-62
2021/08/08 05:21:19;;;;;;;6.32;4.43;;;20.10;93.60;;;;;;5034329;28;20037;-62
2021/08/08 05:23:46;;;;;;;10.23;4.63;;;20.20;93.60;;;;;;5051785;28;20040;-63
2021/08/08 05:26:12;;;;;;;6.00;4.60;;;20.20;93.60;;;;;;5050967;28;20041;-64
2021/08/08 05:28:42;;;;;;;6.68;4.63;;;20.20;93.70;;;;;;5050269;28;20048;-63
2021/08/08 05:31:09;;;;;;;7.78;4.63;;;20.30;93.60;;;;;;5050346;28;20037;-63
2021/08/08 05:33:36;;;;;;;6.72;4.60;;;20.30;93.50;;;;;;5051036;28;20385;-64
2021/08/08 05:36:04;;;;;;;7.22;4.10;;;20.40;93.40;;;;;;5050888;28;20052;-63
2021/08/08 05:38:32;;;;;;;6.13;4.53;;;20.30;93.40;;;;;;5052322;28;20405;-64
2021/08/08 05:40:58;;;;;;;7.88;4.82;;;20.40;93.50;;;;;;5054600;28;20052;-64
2021/08/08 05:43:25;;;;;;;8.68;5.40;;;20.40;93.50;;;;;;5055922;28;20044;-64
2021/08/08 05:45:51;;;;;;;7.65;5.57;;;20.40;93.70;;;;;;5038180;28;20052;-65
2021/08/08 05:48:18;;;;;;;8.77;5.05;;;20.50;93.50;;;;;;5056068;28;20036;-64
2021/08/08 05:50:45;;;;;;;7.70;5.20;;;20.60;93.30;;;;;;5053817;28;20060;-64
2021/08/08 05:53:12;;;;;;;7.03;4.93;;;20.70;93.40;;;;;;5054731;28;20040;-63
2021/08/08 05:55:46;;;;;;;9.43;4.75;;;20.80;93.30;;;;;;5054681;28;20032;-64
2021/08/08 05:58:13;;;;;;;11.20;5.55;;;20.90;93.20;;;;;;5054838;28;20044;-65
2021/08/08 06:00:42;;;;;;;9.82;5.05;;;20.90;92.40;;;;;;5054418;28;20025;-64
2021/08/08 06:03:11;;;;;;;7.90;5.78;;;21.00;92.30;;;;;;5055599;28;20481;-67
2021/08/08 06:05:41;;;;;;;;;;;21.10;92.00;;;;;;5054595;28;20029;-63
2021/08/08 06:08:07;;;;;;;9.38;5.45;;;21.20;91.70;;;;;;5054526;28;20385;-59
2021/08/08 06:10:34;;;;;;;10.95;6.68;;;21.30;91.50;;;;;;5054263;28;20044;-59
2021/08/08 06:13:01;;;;;;;9.60;5.82;;;21.40;91.40;;;;;;5037696;28;20044;-59
2021/08/08 06:15:29;;;;;;;7.93;5.50;;;21.40;91.30;;;;;;5054104;28;20037;-57
2021/08/08 06:17:56;;;;;;;8.27;6.45;;;21.40;91.40;;;;;;5054034;28;20381;-59
2021/08/08 06:20:23;;;;;;;6.80;6.03;;;21.40;91.30;;;;;;5054267;28;20029;-60
2021/08/08 06:22:51;;;;;;;9.68;6.75;;;21.40;91.40;;;;;;5037170;28;20052;-58
2021/08/08 06:25:18;;;;;;;7.93;5.68;;;21.30;91.30;;;;;;5054409;28;20067;-58
2021/08/08 06:27:45;;;;;;;7.32;5.57;;;21.30;91.60;;;;;;5055101;28;20112;-58
2021/08/08 06:30:12;;;;;;;10.07;6.22;;;21.30;91.70;;;;;;5054196;28;20389;-59
2021/08/08 06:32:39;;;;;;;10.40;6.32;;;21.30;91.70;;;;;;5053340;28;20053;-59
2021/08/08 06:35:07;;;;;;;8.48;6.10;;;21.30;91.90;;;;;;5053747;28;20052;-58
2021/08/08 06:37:34;;;;;;;8.40;6.88;;;21.30;91.90;;;;;;5053403;28;20040;-58
2021/08/08 06:40:01;;;;;;;7.45;5.80;;;21.30;91.70;;;;;;5055021;28;20094;-59
2021/08/08 06:42:28;;;;;;;9.93;5.40;;;21.50;91.80;;;;;;5052650;28;20041;-59
2021/08/08 06:44:56;;;;;;;8.15;5.53;;;21.50;91.50;;;;;;5053359;28;20033;-58
2021/08/08 06:47:23;;;;;;;9.90;5.30;;;21.60;90.70;;;;;;5052874;28;20056;-59
2021/08/08 06:49:50;;;;;;;7.75;4.57;;;21.70;90.30;;;;;;5052250;28;20096;-57
2021/08/08 06:52:16;;;;;;;8.52;5.53;;;21.90;90.00;;;;;;5053333;28;20033;-58
2021/08/08 06:54:43;;;;;;;6.15;4.45;;;22.00;88.10;;;;;;5053606;28;20060;-56
2021/08/08 06:57:10;;;;;;;7.85;4.10;;;22.20;86.40;;;;;;5053243;28;20048;-59
2021/08/08 06:59:39;;;;;;;8.90;4.63;;;22.40;85.40;;;;;;5054314;28;20056;-58
2021/08/08 07:02:07;;;;;;;8.00;3.90;;;22.50;84.60;;;;;;5053203;28;20048;-58
2021/08/08 07:04:33;;;;;;;6.47;4.10;;;22.60;84.00;;;;;;5053510;28;20032;-59
2021/08/08 07:07:00;;;;;;;9.52;4.20;;;22.60;84.20;;;;;;5053832;28;20497;-58
2021/08/08 07:09:26;;;;;;;7.30;4.60;;;22.70;83.60;;;;;;5036451;28;20497;-58
2021/08/08 07:11:54;;;;;;;6.80;4.93;;;22.80;83.10;;;;;;5052789;28;20033;-58
2021/08/08 07:14:35;;;;;;;7.23;4.87;;;23.00;82.60;;;;;;5053043;28;20033;-59
2021/08/08 07:17:02;;;;;;;5.50;4.60;;;23.10;82.00;;;;;;5053340;28;20469;-59
2021/08/08 07:19:29;;;;;;;5.88;4.10;;;23.20;81.30;;;;;;5054526;28;20041;-59
2021/08/08 07:21:56;;;;;;;8.82;4.72;;;23.30;80.90;;;;;;5053133;28;20029;-59
2021/08/08 07:24:23;;;;;;;7.13;4.53;;;23.50;80.70;;;;;;5052505;28;20486;-57
2021/08/08 07:26:50;;;;;;;7.93;4.45;;;23.60;80.20;;;;;;5052511;28;20505;-58
2021/08/08 07:29:16;;;;;;;6.65;4.97;;;23.70;79.90;;;;;;5052148;28;20043;-58
2021/08/08 07:31:43;;;;;;;8.15;5.10;;;23.60;79.90;;;;;;5052486;28;20048;-59
2021/08/08 07:34:10;;;;;;;7.00;5.45;;;23.60;80.50;;;;;;5051978;28;20080;-59
2021/08/08 07:36:37;;;;;;;9.60;5.43;;;23.40;81.30;;;;;;5053503;28;20045;-59
2021/08/08 07:39:03;;;;;;;6.50;4.88;;;23.30;82.00;;;;;;5051763;28;20048;-58
2021/08/08 07:41:31;;;;;;;10.43;5.28;;;23.10;83.00;;;;;;5052470;28;20037;-58
2021/08/08 07:43:58;;;;;;;7.10;5.43;;;23.20;82.80;;;;;;5052930;28;20036;-58
2021/08/08 07:46:24;;;;;;;13.02;5.63;;;23.20;82.40;;;;;;5051906;28;20056;-58
2021/08/08 07:48:51;;;;;;;7.63;6.00;;;23.20;82.30;;;;;;5053536;28;20051;-59
2021/08/08 07:51:18;;;;;;;10.98;6.75;;;23.10;83.40;;;;;;5052596;28;20052;-57
2021/08/08 07:53:45;;;;;;;10.15;6.18;;;23.00;82.80;;;;;;5052507;28;20044;-57
2021/08/08 07:56:11;;;;;;;9.45;6.03;;;22.90;83.80;;;;;;5052161;28;20032;-58
2021/08/08 07:58:41;;;;;;;9.55;5.80;;;22.90;84.20;;;;;;5052572;28;20028;-58
2021/08/08 08:01:08;;;;;;;8.77;5.68;;;23.00;83.90;;;;;;5051698;28;20409;-59
2021/08/08 08:03:34;;;;;;;7.63;5.57;;;23.10;83.70;;;;;;5052158;28;20049;-59
2021/08/08 08:06:01;;;;;;;7.72;6.25;;;23.20;83.60;;;;;;5052071;28;20036;-59
2021/08/08 08:08:28;;;;;;;6.75;6.13;;;23.30;82.80;;;;;;5051679;28;20460;-63
2021/08/08 08:10:55;;;;;;;10.52;6.22;;;23.40;82.30;;;;;;5035696;28;20489;-60
2021/08/08 08:13:22;;;;;;;7.78;5.88;;;23.50;81.90;;;;;;5035374;28;20048;-60
2021/08/08 08:15:48;;;;;;;8.63;5.47;;;23.60;81.60;;;;;;5053151;28;20388;-53
2021/08/08 08:18:15;;;;;;;6.63;4.45;;;23.80;80.80;;;;;;5035821;28;20040;-61
2021/08/08 08:20:43;;;;;;;9.38;4.57;;;23.90;78.30;;;;;;5052657;28;20041;-61
2021/08/08 08:23:10;;;;;;;9.70;4.20;;;23.80;78.50;;;;;;5052995;28;20045;-62
2021/08/08 08:25:37;;;;;;;5.65;4.18;;;23.90;77.20;;;;;;5052952;28;20025;-60
2021/08/08 08:28:04;;;;;;;8.07;3.92;;;23.90;76.90;;;;;;5051710;28;20037;-61
2021/08/08 08:30:31;;;;;;;5.75;4.10;;;24.10;76.40;;;;;;5034986;28;20485;-61
2021/08/08 08:33:04;;;;;;;6.97;4.28;;;24.20;75.30;;;;;;5051805;28;20045;-62
2021/08/08 08:35:31;;;;;;;5.45;3.88;;;24.30;75.00;;;;;;5051708;28;20053;-61
2021/08/08 08:37:59;;;;;;;11.10;5.22;;;24.20;75.70;;;;;;5051379;28;20507;-61
2021/08/08 08:40:26;;;;;;;6.65;4.45;;;24.30;75.40;;;;;;5051357;28;20045;-61
2021/08/08 08:42:59;;;;;;;6.43;3.97;;;24.30;74.60;;;;;;5051576;28;20041;-61
2021/08/08 08:45:26;;;;;;;7.28;4.30;;;24.40;74.60;;;;;;5051671;28;20044;-61
2021/08/08 08:47:53;;;;;;;6.95;3.58;;;24.60;74.60;;;;;;5052540;28;20473;-66
2021/08/08 08:50:22;;;;;;;6.25;3.35;;;24.70;73.00;;;;;;5052674;28;20037;-60
2021/08/08 08:52:51;;;;;;;6.50;3.00;;;24.90;71.80;;;;;;5051180;28;20045;-60
2021/08/08 08:55:18;;;;;;;7.25;4.47;;;25.00;70.70;;;;;;5050828;28;20049;-60
2021/08/08 08:57:45;;;;;;;7.60;3.50;;;25.00;69.90;;;;;;5050991;28;20492;-59
2021/08/08 09:00:13;;;;;;;6.07;3.00;;;25.10;70.50;;;;;;5050897;28;20492;-57
2021/08/08 09:02:42;;;;;;;6.88;3.25;;;25.20;68.30;;;;;;5050229;28;20044;-61
2021/08/08 09:05:10;;;;;;;5.25;2.60;;;25.20;67.70;;;;;;5048846;28;20036;-60
2021/08/08 09:07:37;;;;;;;5.38;3.13;;;25.30;67.40;;;;;;5049074;28;20112;-59
2021/08/08 09:10:11;;;;;;;4.50;2.72;;;25.40;67.00;;;;;;5049450;28;20346;-59
2021/08/08 09:12:39;;;;;;;4.55;3.05;;;25.40;65.70;;;;;;5049770;28;20037;-60
2021/08/08 09:15:07;;;;;;;5.35;3.10;;;25.50;65.40;;;;;;5049642;28;20069;-59
2021/08/08 09:17:42;;;;;;;10.23;2.85;;;25.50;65.70;;;;;;5051028;28;20045;-60
2021/08/08 09:20:11;;;;;;;5.65;2.70;;;25.50;65.80;;;;;;5050597;28;20029;-61
2021/08/08 09:22:43;;;;;;;6.88;3.53;;;25.60;65.80;;;;;;5050206;28;20037;-60
2021/08/08 09:25:21;;;;;;;8.10;4.38;;;25.60;65.60;;;;;;5052127;28;20032;-62
2021/08/08 09:27:49;;;;;;;3.83;3.05;;;25.80;65.20;;;;;;5050930;28;20029;-60
2021/08/08 09:30:18;;;;;;;5.32;3.00;;;25.80;63.80;;;;;;5050586;28;20373;-61
2021/08/08 09:32:45;;;;;;;19.95;13.82;;;25.90;64.10;;;;;;5052356;28;20385;-61
2021/08/08 09:35:19;;;;;;;8.10;4.90;;;26.00;64.20;;;;;;5050488;28;20101;-61
2021/08/08 09:38:00;;;;;;;8.88;6.22;;;25.80;64.10;;;;;;5051447;28;20041;-60
2021/08/08 09:40:27;;;;;;;7.45;4.07;;;25.80;64.80;;;;;;5051971;28;20088;-60
2021/08/08 09:42:53;;;;;;;6.05;4.55;;;25.70;64.70;;;;;;5052000;28;20044;-62
2021/08/08 09:45:43;;;;;;;6.75;4.97;;;25.70;65.30;;;;;;5050671;28;20503;-61
2021/08/08 09:48:11;;;;;;;7.50;3.60;;;25.70;65.50;;;;;;5052347;28;20461;-60
2021/08/08 09:50:39;;;;;;;5.15;3.60;;;25.90;65.60;;;;;;5051997;28;20037;-60
2021/08/08 09:53:08;;;;;;;6.55;4.43;;;25.90;65.20;;;;;;5051590;28;20041;-60
2021/08/08 09:55:39;;;;;;;5.05;3.90;;;26.10;65.20;;;;;;5051731;28;20033;-60
2021/08/08 09:58:26;;;;;;;8.93;4.30;;;26.00;65.00;;;;;;5050802;28;20392;-60
2021/08/08 10:01:00;;;;;;;6.35;4.05;;;26.20;64.40;;;;;;5050699;28;20021;-60
2021/08/08 10:03:27;;;;;;;6.43;4.03;;;25.90;64.70;;;;;;5052432;28;20070;-59
2021/08/08 10:05:55;;;;;;;4.68;3.78;;;25.80;65.60;;;;;;5051604;28;20036;-60
2021/08/08 10:08:23;;;;;;;5.38;3.72;;;25.60;65.40;;;;;;5052002;28;20377;-60
2021/08/08 10:10:52;;;;;;;5.55;3.70;;;25.60;65.90;;;;;;5051350;28;20052;-60
2021/08/08 10:13:18;;;;;;;11.20;4.78;;;25.90;66.10;;;;;;5051508;28;20033;-60
2021/08/08 10:15:50;;;;;;;5.05;3.45;;;26.00;65.40;;;;;;5051520;28;20473;-60
2021/08/08 10:18:20;;;;;;;6.07;3.75;;;25.90;65.20;;;;;;5051927;28;20048;-60
2021/08/08 10:20:46;;;;;;;6.73;3.77;;;25.90;65.80;;;;;;5051309;28;20056;-60
2021/08/08 10:23:15;;;;;;;5.95;3.53;;;25.80;66.20;;;;;;5051877;28;20032;-59
2021/08/08 10:25:47;;;;;;;5.97;3.65;;;25.80;66.20;;;;;;5055003;28;20044;-60
2021/08/08 10:28:14;;;;;;;7.28;3.83;;;26.10;65.40;;;;;;5054563;28;20041;-60
2021/08/08 10:30:42;;;;;;;5.55;3.40;;;26.30;64.50;;;;;;5055366;28;20025;-61
2021/08/08 10:33:09;;;;;;;4.88;3.53;;;26.30;63.30;;;;;;5055169;28;20052;-60
2021/08/08 10:35:44;;;;;;;6.10;3.67;;;26.30;62.40;;;;;;5054222;28;20057;-60
2021/08/08 10:38:11;;;;;;;7.45;3.75;;;26.10;63.10;;;;;;5055044;28;20366;-60
2021/08/08 10:40:40;;;;;;;4.95;3.75;;;26.00;64.00;;;;;;5054843;28;20369;-60
2021/08/08 10:43:08;;;;;;;6.28;3.65;;;26.20;63.80;;;;;;5053330;28;20068;-60
2021/08/08 10:45:37;;;;;;;5.75;4.10;;;26.20;63.30;;;;;;5055167;28;20488;-61
2021/08/08 10:48:09;;;;;;;4.68;3.53;;;26.30;63.80;;;;;;5055143;28;20034;-61
2021/08/08 10:50:46;;;;;;;5.50;3.45;;;26.10;64.50;;;;;;5053119;28;20033;-60
2021/08/08 10:53:30;;;;;;;6.30;3.80;;;26.10;64.30;;;;;;5054900;28;20036;-60
2021/08/08 10:56:11;;;;;;;6.32;4.13;;;26.20;64.70;;;;;;5054781;28;20045;-60
2021/08/08 10:58:40;;;;;;;8.07;3.78;;;26.20;64.60;;;;;;5052420;28;20401;-61
2021/08/08 11:01:20;;;;;;;5.82;3.75;;;26.40;63.60;;;;;;5054503;28;20029;-61
2021/08/08 11:03:57;;;;;;;6.78;3.65;;;26.60;62.50;;;;;;5054296;28;20389;-61
2021/08/08 11:06:26;;;;;;;6.90;3.35;;;26.70;61.50;;;;;;5052835;28;20033;-60
2021/08/08 11:08:57;;;;;;;5.13;3.80;;;26.70;61.30;;;;;;5054011;28;20482;-61
2021/08/08 11:11:32;;;;;;;6.65;3.28;;;26.70;61.20;;;;;;5054096;28;20036;-60
2021/08/08 11:14:09;;;;;;;8.90;3.35;;;26.70;61.60;;;;;;5053732;28;20100;-60
2021/08/08 11:16:37;;;;;;;7.68;4.13;;;26.70;61.30;;;;;;5054546;28;20504;-60
2021/08/08 11:19:03;;;;;;;9.98;3.80;;;26.60;61.50;;;;;;5052453;28;20048;-60
2021/08/08 11:21:30;;;;;;;13.63;3.83;;;26.50;62.40;;;;;;5054095;28;20377;-61
2021/08/08 11:23:59;;;;;;;6.60;3.10;;;26.40;62.10;;;;;;5053932;28;20040;-60
2021/08/08 11:26:27;;;;;;;9.00;3.63;;;26.30;63.10;;;;;;5053178;28;20029;-59
2021/08/08 11:28:55;;;;;;;6.72;3.78;;;26.30;63.90;;;;;;5053715;28;20028;-59
2021/08/08 11:31:24;;;;;;;5.50;3.58;;;26.40;63.00;;;;;;5054234;28;20033;-60
2021/08/08 11:34:00;;;;;;;5.50;3.00;;;26.50;62.60;;;;;;5054136;28;20716;-60
2021/08/08 11:36:36;;;;;;;5.03;3.05;;;26.60;62.90;;;;;;5052527;28;20044;-59
2021/08/08 11:39:09;;;;;;;5.45;3.45;;;26.90;62.10;;;;;;5053712;28;20037;-58
2021/08/08 11:41:36;;;;;;;8.95;4.63;;;27.20;61.50;;;;;;5053303;28;20045;-57
2021/08/08 11:44:06;;;;;;;8.45;3.60;;;27.00;61.30;;;;;;5052539;28;20029;-57
2021/08/08 11:46:34;;;;;;;5.85;3.17;;;26.90;61.10;;;;;;5051960;28;20052;-57
2021/08/08 11:49:21;;;;;;;4.60;3.65;;;26.90;61.00;;;;;;5053981;28;20060;-58
2021/08/08 11:52:15;;;;;;;5.72;3.47;;;26.80;60.90;;;;;;5053641;28;20029;-58
2021/08/08 11:54:42;;;;;;;6.00;3.78;;;26.70;61.60;;;;;;5053350;28;20405;-58
2021/08/08 11:57:12;;;;;;;7.15;4.15;;;26.90;61.60;;;;;;5053331;28;20039;-58
2021/08/08 11:59:39;;;;;;;4.77;4.13;;;26.70;60.50;;;;;;5053662;28;20033;-58
2021/08/08 12:02:09;;;;;;;6.20;3.53;;;26.50;61.80;;;;;;5053482;28;20346;-59
2021/08/08 12:04:39;;;;;;;7.72;3.33;;;26.80;61.50;;;;;;5053413;28;20037;-58
2021/08/08 12:07:10;;;;;;;4.67;3.90;;;27.00;60.70;;;;;;5053198;28;20049;-58
2021/08/08 12:09:44;;;;;;;5.82;3.70;;;27.00;60.40;;;;;;5052770;28;20052;-58
2021/08/08 12:12:11;;;;;;;5.18;3.40;;;27.20;58.60;;;;;;5052843;28;20469;-57
2021/08/08 12:14:43;;;;;;;4.50;3.22;;;27.20;58.40;;;;;;5052606;28;20049;-58
2021/08/08 12:17:18;;;;;;;4.43;3.13;;;27.30;58.60;;;;;;5052827;28;20041;-58
2021/08/08 12:19:50;;;;;;;9.30;4.65;;;27.10;58.60;;;;;;5052832;28;20044;-59
2021/08/08 12:32:40;;;;;;;8.55;4.05;;;27.80;65.90;;;;;;5130906;27;20459;-61
2021/08/08 12:35:10;;;;;;;6.32;3.60;;;27.80;58.00;;;;;;5129221;28;20043;-62
2021/08/08 12:37:37;;;;;;;6.10;4.07;;;27.70;57.50;;;;;;5129112;28;20047;-61
2021/08/08 12:40:12;;;;;;;8.38;3.58;;;27.80;56.90;;;;;;5130920;28;20027;-61
2021/08/08 12:42:39;;;;;;;6.93;4.05;;;27.80;57.20;;;;;;5129744;27;20039;-63
2021/08/08 12:45:12;;;;;;;7.05;3.97;;;27.70;56.90;;;;;;5130765;28;20023;-59
2021/08/08 12:47:44;;;;;;;5.75;3.85;;;27.70;56.90;;;;;;5130944;28;20347;-59
2021/08/08 12:50:16;;;;;;;8.13;4.10;;;27.70;57.00;;;;;;5130041;28;20371;-59
2021/08/08 12:52:43;;;;;;;8.13;4.15;;;27.80;56.80;;;;;;5130264;27;20113;-59
2021/08/08 12:55:12;;;;;;;6.43;3.50;;;27.80;56.60;;;;;;5130336;28;20085;-60
2021/08/08 12:57:40;;;;;;;7.57;3.90;;;27.80;56.10;;;;;;5129950;28;20039;-60
2021/08/08 13:00:08;;;;;;;7.57;4.15;;;27.80;56.70;;;;;;5130350;28;20027;-61
2021/08/08 13:02:35;;;;;;;7.80;4.18;;;27.80;55.90;;;;;;5111592;28;20040;-56
2021/08/08 13:05:01;;;;;;;9.35;4.55;;;27.80;56.30;;;;;;5128913;28;20028;-59